Abralaite, Argentina
Current Conditions -  °F | °C
As of 5:00 PM on Sunday 25 Jan 2015 (Local Time) from SASJ Reporting Station
Broken Clouds Broken Clouds  
Wind Chill: 32°   Ceiling: 20000
Heat Index: 32°   Visibility: 6mi
Dew Point: 16°   Wind: 12mph
Humidity: 38%   Direction: 50°NE
Pressure: 29.83"   Gusts: NA
Location:  23.2°S, 65.74°W
Report Text: SASJ 252000Z 05010KT 9999 FEW020 FEW035TCUBKN200 32/16 Q1010
Loading
Personal Weather Stations






























Interactive Weather Map New forecast layout! Learn more

10-Day Weather Forecast

Advertisements
Track Severe Weather on mobile